Big Torch Key, Florida
Current Conditions -  °F | °C
As of 12:53 PM on Wednesday 28 Jan 2015 (Local Time) from KNQX Reporting Station
Clear Clear  
Wind Chill: 66°   Ceiling: Unl
Heat Index: 66°   Visibility: 10mi
Dew Point: 42°   Wind: 16mph
Humidity: 42%   Direction: 360°N
Pressure: 30.17"   Gusts: NA
Location:  24.6465°N, 81.5399°W
Report Text: KNQX 281753Z 36014KT 10SM CLR 19/06 A3017 RMK AO2 SLP215 T01890056 10194 20172 58008 $
Loading
Personal Weather Stations






























Interactive Weather Map New forecast layout! Learn more

10-Day Weather Forecast

Advertisements
Track Severe Weather on mobile